Terminal Aerodrome Forecast
Issued by NWS

Home | Current Version | Previous Version | Text Only | Print | Product List | Glossary On
Versions: 1 2 3 4 5 6 7 8 9 10 11 12 13 14 15 16 17 18
000
FTPA31 PHFO 231130
TAFHTO
TAF
PHTO 231130Z 2312/2412 21006KT P6SM SCT020 SCT035
     FM232100 13009KT P6SM VCTS SCT020 BKN035CB OVC050
     FM240600 16011G18KT P6SM VCTS SCT020 BKN035CB OVC050=

USA.gov is the U.S. government's official web portal to all federal, state and local government web resources and services.